Time;durP1;ratioP1;P1;durP2;ratioP2;P2;SDS_P1;SDS_P2;PMS_P1;PMS_P2;Temp;Humidity;BMP_temperature;BMP_pressure;BME280_temperature;BME280_humidity;BME280_pressure;Samples;Min_cycle;Max_cycle;Signal;HPM_P1;HPM_P2
2023/11/12 04:43:43;;;;;;;14.77;8.73;;;;;;;5.93;77.78;98621.59;6278577;22;20004;-91
2023/11/12 04:46:12;;;;;;;16.65;9.35;;;;;;;5.30;77.76;98532.69;6267963;22;20023;-86
2023/11/12 04:48:45;;;;;;;16.23;9.35;;;;;;;5.42;77.72;98560.88;6317546;22;20019;-87
2023/11/12 04:51:11;;;;;;;16.55;9.60;;;;;;;5.64;77.82;98587.34;6294289;22;20019;-87
2023/11/12 04:53:53;;;;;;;19.67;8.77;;;;;;;5.75;77.96;98592.59;6272359;22;20149;-91
2023/11/12 04:56:20;;;;;;;16.88;9.43;;;;;;;5.77;77.78;98587.69;6242130;22;20023;-87
2023/11/12 04:58:55;;;;;;;18.42;9.45;;;;;;;5.99;77.53;98623.09;6291937;22;20011;-89
2023/11/12 05:02:20;;;;;;;15.77;9.85;;;;;;;6.07;77.88;98606.13;6321106;22;20011;-88
2023/11/12 05:05:47;;;;;;;14.38;8.48;;;;;;;5.99;77.59;98604.09;6305481;22;20022;-90
2023/11/12 05:08:18;;;;;;;19.98;9.85;;;;;;;5.69;77.41;98553.13;6299935;22;20019;-89
2023/11/12 05:10:48;;;;;;;14.60;9.20;;;;;;;5.96;77.49;98579.47;6222886;22;20015;-90
2023/11/12 05:13:14;;;;;;;15.52;9.25;;;;;;;5.65;77.33;98528.50;6272792;22;20026;-91
2023/11/12 05:16:06;;;;;;;19.13;10.25;;;;;;;6.05;76.95;98596.69;6212792;22;20044;-87
2023/11/12 05:18:50;;;;;;;18.05;10.10;;;;;;;5.50;77.47;98516.06;6188616;23;20033;-88
2023/11/12 05:21:17;;;;;;;14.80;9.45;;;;;;;5.90;77.20;98548.94;6180838;23;20078;-91
2023/11/12 05:23:45;;;;;;;16.58;9.70;;;;;;;6.02;76.82;98548.44;6206296;23;20016;-91
2023/11/12 05:26:10;;;;;;;;;;;;;;;6.19;76.71;98574.97;6175419;23;20012;-87
2023/11/12 05:28:49;;;;;;;17.70;9.13;;;;;;;6.24;76.91;98574.88;6152432;23;19927;-89
2023/11/12 05:31:14;;;;;;;20.27;10.82;;;;;;;5.92;76.49;98524.19;6182487;23;20019;-89
2023/11/12 05:33:51;;;;;;;16.63;10.48;;;;;;;6.05;76.54;98529.66;6179616;23;20016;-89
2023/11/12 05:36:20;;;;;;;14.27;8.50;;;;;;;6.02;76.20;98522.13;6205745;23;20036;-88
2023/11/12 05:38:53;;;;;;;14.60;8.45;;;;;;;5.82;76.02;98473.69;6229053;23;20021;-88
2023/11/12 05:41:46;;;;;;;17.02;9.13;;;;;;;6.24;75.99;98532.25;6177956;23;20358;-88
2023/11/12 05:44:12;;;;;;;18.55;9.55;;;;;;;5.91;75.90;98466.44;6178470;23;20020;-88
2023/11/12 05:46:38;;;;;;;17.40;10.05;;;;;;;6.28;75.71;98514.25;6200353;23;20015;-89
2023/11/12 05:49:05;;;;;;;16.20;9.37;;;;;;;6.16;75.82;98500.41;6202397;23;20021;-87
2023/11/12 05:51:33;;;;;;;14.50;8.98;;;;;;;5.95;75.91;98461.25;6177752;23;20801;-87
2023/11/12 05:54:08;;;;;;;17.77;9.00;;;;;;;5.73;75.60;98405.81;6151439;23;20020;-88
2023/11/12 05:56:38;;;;;;;15.00;9.85;;;;;;;5.84;75.72;98430.78;6178132;23;20016;-89
2023/11/12 05:59:07;;;;;;;15.98;9.35;;;;;;;6.01;75.62;98446.47;6157976;23;20016;-89
2023/11/12 06:02:24;;;;;;;13.90;8.18;;;;;;;6.24;75.34;98486.13;6207018;23;20025;-88
2023/11/12 06:04:53;;;;;;;18.80;9.70;;;;;;;6.18;75.79;98467.53;6203939;23;20043;-92
2023/11/12 06:07:19;;;;;;;15.48;8.70;;;;;;;5.94;75.15;98421.66;6233584;22;20029;-88
2023/11/12 06:09:48;;;;;;;18.13;9.93;;;;;;;5.94;74.87;98418.97;6152747;23;20027;-87
2023/11/12 06:12:14;;;;;;;16.58;8.52;;;;;;;6.01;75.36;98425.56;6200354;23;20012;-89
2023/11/12 06:17:51;;;;;;;16.73;8.15;;;;;;;5.77;75.34;98395.94;6236077;23;20040;-90
2023/11/12 06:21:14;;;;;;;14.95;8.05;;;;;;;6.13;75.75;98440.53;6214138;23;20028;-90
2023/11/12 06:23:43;;;;;;;12.23;7.72;;;;;;;5.96;75.25;98412.13;6258986;23;20031;-91
2023/11/12 06:26:17;;;;;;;11.35;7.60;;;;;;;5.76;75.12;98372.66;6207272;23;20016;-93
2023/11/12 06:28:50;;;;;;;11.60;7.43;;;;;;;5.85;75.22;98376.22;6210136;23;20022;-90
2023/11/12 06:31:16;;;;;;;14.98;8.65;;;;;;;5.94;74.64;98392.63;6234653;23;20043;-89
2023/11/12 06:33:44;;;;;;;13.80;7.72;;;;;;;5.99;74.29;98403.34;6260892;23;20027;-90
2023/11/12 06:36:16;;;;;;;16.08;8.73;;;;;;;6.01;74.83;98403.06;6234236;23;20020;-90
2023/11/12 06:39:07;;;;;;;13.20;7.97;;;;;;;6.17;75.00;98425.25;6233572;23;20023;-89
2023/11/12 06:41:33;;;;;;;13.02;7.90;;;;;;;5.88;74.95;98361.28;6188339;23;20019;-88
2023/11/12 06:44:09;;;;;;;16.52;7.80;;;;;;;5.85;74.85;98365.38;6208127;23;20020;-89
2023/11/12 06:50:11;;;;;;;12.10;7.00;;;;;;;5.78;75.54;98335.19;6259349;23;20008;-88
2023/11/12 06:52:39;;;;;;;12.90;8.35;;;;;;;6.21;75.55;98383.59;6208324;23;20020;-90
2023/11/12 06:55:11;;;;;;;14.55;7.13;;;;;;;6.25;75.75;98384.59;6210575;23;20106;-90
2023/11/12 06:57:37;;;;;;;12.25;7.10;;;;;;;5.96;75.34;98348.91;6210118;23;20023;-88
2023/11/12 07:00:08;;;;;;;11.07;7.40;;;;;;;6.16;75.92;98382.91;6231030;23;20095;-87
2023/11/12 07:02:34;;;;;;;19.63;7.15;;;;;;;5.74;76.00;98315.22;6183480;23;20024;-89
2023/11/12 07:05:11;;;;;;;13.07;7.43;;;;;;;5.83;76.39;98339.69;6185787;23;20016;-91
2023/11/12 07:07:42;;;;;;;11.55;7.03;;;;;;;5.85;76.23;98330.13;6238078;23;20454;-88
2023/11/12 07:10:16;;;;;;;12.70;7.45;;;;;;;5.88;76.62;98348.50;6214894;23;20047;-90
2023/11/12 07:12:42;;;;;;;12.77;7.07;;;;;;;5.72;77.03;98336.38;6234230;23;20016;-89
2023/11/12 07:15:09;;;;;;;11.88;7.70;;;;;;;5.73;77.06;98321.75;6189362;23;20020;-89
2023/11/12 07:17:46;;;;;;;10.40;6.53;;;;;;;6.01;76.67;98340.66;6213298;23;20044;-89
2023/11/12 07:20:32;;;;;;;14.63;8.23;;;;;;;5.74;76.54;98309.78;6243227;22;20354;-87
2023/11/12 07:23:01;;;;;;;16.92;7.53;;;;;;;5.66;76.62;98302.34;6262873;23;20016;-88
2023/11/12 07:25:28;;;;;;;11.48;7.00;;;;;;;5.86;76.76;98325.50;6237724;23;20078;-87
2023/11/12 07:28:23;;;;;;;15.80;7.25;;;;;;;5.99;77.25;98349.09;6266238;22;20088;-88
2023/11/12 07:32:05;;;;;;;10.80;6.47;;;;;;;5.68;77.19;98283.88;6111920;23;20022;-90
2023/11/12 07:34:39;;;;;;;10.90;6.35;;;;;;;5.45;77.27;98252.44;6068905;23;20062;-90
2023/11/12 07:37:30;;;;;;;13.02;6.93;;;;;;;5.96;77.37;98314.47;6037046;23;20022;-87
2023/11/12 07:40:04;;;;;;;10.48;5.90;;;;;;;5.80;77.49;98319.41;6082015;23;20038;-89
2023/11/12 07:42:31;;;;;;;12.35;6.35;;;;;;;5.67;77.37;98292.34;6084119;23;20022;-90
2023/11/12 07:45:00;;;;;;;9.80;6.00;;;;;;;5.54;76.99;98247.91;6061074;23;20015;-91
2023/11/12 07:47:32;;;;;;;15.48;7.40;;;;;;;5.38;77.49;98223.84;6085327;23;20089;-89
2023/11/12 07:50:09;;;;;;;13.43;7.63;;;;;;;5.69;77.30;98277.34;6101067;23;20014;-91
2023/11/12 07:52:37;;;;;;;9.50;6.68;;;;;;;5.52;77.41;98252.81;6079150;23;20027;-88
2023/11/12 07:55:14;;;;;;;12.43;6.53;;;;;;;5.77;77.24;98279.34;6109969;23;20006;-91
2023/11/12 07:57:42;;;;;;;9.27;5.95;;;;;;;5.56;77.73;98235.66;6081119;23;20018;-86
2023/11/12 08:00:12;;;;;;;9.13;5.68;;;;;;;5.71;77.64;98271.63;6078667;23;20337;-88
2023/11/12 08:02:47;;;;;;;10.40;6.18;;;;;;;5.76;77.53;98274.22;6061067;23;20026;-89
2023/11/12 08:05:14;;;;;;;11.98;6.38;;;;;;;5.73;77.83;98250.41;6055776;23;20042;-89
2023/11/12 08:07:41;;;;;;;11.73;6.63;;;;;;;5.88;78.06;98266.34;6099949;23;20025;-89
2023/11/12 08:10:08;;;;;;;10.15;5.97;;;;;;;5.34;77.84;98190.34;6208978;23;20027;-90
2023/11/12 08:13:00;;;;;;;13.85;6.53;;;;;;;5.48;78.42;98197.63;6190306;23;20000;-92
2023/11/12 08:16:02;;;;;;;12.43;5.90;;;;;;;5.16;78.32;98151.44;6186211;23;20008;-92
2023/11/12 08:18:32;;;;;;;11.20;7.00;;;;;;;5.56;78.99;98205.00;6181167;23;20036;-90
2023/11/12 08:21:10;;;;;;;12.73;6.70;;;;;;;5.56;78.81;98203.13;6181186;23;20052;-90
2023/11/12 08:23:39;;;;;;;;;;;;;;;5.85;78.64;98226.28;6182079;23;20020;-90
2023/11/12 08:26:17;;;;;;;9.77;5.45;;;;;;;5.64;78.73;98212.41;6208659;23;19966;-92
2023/11/12 08:29:11;;;;;;;11.95;6.00;;;;;;;5.51;79.14;98191.59;6113057;23;20102;-90
2023/11/12 08:31:55;;;;;;;9.57;5.88;;;;;;;5.44;78.94;98177.66;6112465;23;20033;-91
2023/11/12 08:34:24;;;;;;;12.02;6.22;;;;;;;5.48;78.94;98171.31;6089322;23;20656;-90
2023/11/12 08:36:52;;;;;;;9.32;6.10;;;;;;;5.68;79.35;98228.88;6085830;23;20022;-92
2023/11/12 08:39:20;;;;;;;11.43;6.03;;;;;;;5.64;79.45;98217.84;6139042;23;20032;-91
2023/11/12 08:41:50;;;;;;;10.15;6.43;;;;;;;5.49;79.27;98172.91;6109607;23;20065;-92
2023/11/12 08:44:18;;;;;;;14.93;6.60;;;;;;;5.38;79.12;98139.84;6095583;23;20022;-90
2023/11/12 08:46:49;;;;;;;12.07;6.47;;;;;;;5.78;79.21;98205.00;6094796;23;20018;-90
2023/11/12 08:49:25;;;;;;;9.40;6.32;;;;;;;5.80;79.59;98213.66;6106826;23;20021;-90
2023/11/12 08:51:54;;;;;;;10.45;6.28;;;;;;;5.78;79.24;98196.88;6062841;23;20022;-91
2023/11/12 08:54:23;;;;;;;14.00;6.25;;;;;;;5.46;79.53;98124.72;6097724;23;20018;-92
2023/11/12 08:57:22;;;;;;;11.93;6.47;;;;;;;5.84;79.31;98179.38;6096150;23;20029;-91
2023/11/12 08:59:53;;;;;;;9.35;5.55;;;;;;;5.64;79.59;98152.78;6119405;23;20000;-91
2023/11/12 09:02:24;;;;;;;14.00;5.80;;;;;;;5.85;79.04;98164.69;6096436;23;20053;-93
2023/11/12 09:07:48;;;;;;;9.95;5.95;;;;;;;5.50;79.94;98100.56;6318606;22;20026;-90
2023/11/12 09:10:17;;;;;;;11.13;6.70;;;;;;;5.47;79.74;98093.03;6263531;22;20110;-92
2023/11/12 09:15:39;;;;;;;12.27;6.65;;;;;;;5.81;79.71;98130.38;6293308;22;20023;-90
2023/11/12 09:18:07;;;;;;;13.15;6.50;;;;;;;5.80;79.67;98128.81;6193860;22;20106;-93
2023/11/12 09:24:03;;;;;;;10.30;5.88;;;;;;;5.82;79.84;98124.63;6322606;22;20015;-91
2023/11/12 09:26:56;;;;;;;13.68;6.88;;;;;;;5.86;79.65;98120.22;6307630;22;20023;-92
2023/11/12 09:29:55;;;;;;;10.85;6.88;;;;;;;5.49;80.00;98058.28;6306779;22;20027;-91
2023/11/12 09:32:25;;;;;;;12.98;6.40;;;;;;;5.50;79.79;98049.84;6226450;22;20023;-90
2023/11/12 09:35:10;;;;;;;13.07;6.68;;;;;;;5.54;79.51;98055.44;6300771;22;20049;-91
2023/11/12 09:37:54;;;;;;;8.82;5.82;;;;;;;5.75;79.74;98080.91;6252932;22;20019;-91
2023/11/12 09:40:31;;;;;;;9.05;6.22;;;;;;;5.98;79.87;98097.16;6230004;22;20006;-89
2023/11/12 09:46:25;;;;;;;9.85;6.32;;;;;;;5.71;79.70;98041.97;6296173;22;20046;-89
2023/11/12 09:48:57;;;;;;;9.98;5.85;;;;;;;5.80;79.91;98042.81;6273806;22;20020;-89
2023/11/12 09:51:32;;;;;;;10.35;5.75;;;;;;;5.67;79.71;98018.53;6250544;22;20023;-92
2023/11/12 09:57:01;;;;;;;9.13;5.82;;;;;;;6.04;79.78;98066.06;6327302;22;20031;-91
2023/11/12 10:00:21;;;;;;;10.02;6.25;;;;;;;6.02;79.94;98057.44;6254708;22;20006;-92
2023/11/12 10:03:25;;;;;;;8.52;5.40;;;;;;;5.59;80.44;97990.25;6251177;23;20050;-91
2023/11/12 10:05:58;;;;;;;8.48;5.68;;;;;;;5.91;80.33;98029.78;6208419;23;20012;-90
2023/11/12 10:08:27;;;;;;;13.85;6.18;;;;;;;5.32;80.66;97927.00;6188907;23;19996;-91
2023/11/12 10:13:53;;;;;;;9.15;5.53;;;;;;;6.00;80.97;98019.78;6289269;22;20130;-90
2023/11/12 10:17:27;;;;;;;9.82;6.07;;;;;;;5.34;80.76;97921.28;6272506;22;20051;-91
2023/11/12 10:21:07;;;;;;;9.02;5.68;;;;;;;5.71;80.71;97962.56;6307057;22;20033;-90
2023/11/12 10:23:38;;;;;;;9.82;6.47;;;;;;;5.94;80.73;97960.59;6286680;22;20027;-90
2023/11/12 10:31:59;;;;;;;8.27;5.60;;;;;;;6.13;80.61;97974.66;6295281;22;20051;-90
2023/11/12 10:34:53;;;;;;;11.40;6.32;;;;;;;5.70;80.39;97891.28;6186421;23;20048;-89
2023/11/12 10:38:01;;;;;;;8.23;4.97;;;;;;;5.89;80.30;97908.06;6159630;23;20036;-91
2023/11/12 10:49:53;;;;;;;7.75;5.18;;;;;;;6.08;80.66;97915.91;6293568;22;20024;-87
2023/11/12 10:56:16;;;;;;;9.30;5.78;;;;;;;6.04;81.46;97901.41;6240800;23;20220;-89
2023/11/12 10:58:45;;;;;;;9.02;6.05;;;;;;;5.76;81.34;97867.50;6164935;23;20124;-89
2023/11/12 11:01:19;;;;;;;12.07;6.47;;;;;;;6.08;81.85;97907.78;6210734;23;20020;-87
2023/11/12 11:06:37;;;;;;;8.82;5.68;;;;;;;6.16;82.29;97897.25;6246779;22;20357;-88
2023/11/12 11:09:10;;;;;;;11.23;6.05;;;;;;;6.17;82.23;97890.72;6273957;22;20023;-91
2023/11/12 11:11:38;;;;;;;10.13;6.75;;;;;;;6.24;82.15;97882.91;6276468;22;20072;-90
2023/11/12 11:14:32;;;;;;;9.93;6.53;;;;;;;6.10;81.90;97864.88;6272650;22;20031;-88
2023/11/12 11:17:00;;;;;;;9.32;6.75;;;;;;;6.25;82.12;97879.84;6249182;22;19995;-90
2023/11/12 11:19:53;;;;;;;9.32;6.85;;;;;;;6.26;82.15;97870.63;6250519;22;20015;-89
2023/11/12 11:22:44;;;;;;;11.75;7.78;;;;;;;6.14;82.09;97848.75;6290348;22;20002;-89
2023/11/12 11:25:29;;;;;;;14.07;8.27;;;;;;;6.55;82.31;97893.56;6282847;22;19999;-89
2023/11/12 11:34:16;;;;;;;9.88;7.13;;;;;;;6.08;81.90;97810.13;6295557;22;20083;-89
2023/11/12 11:37:46;;;;;;;15.55;9.30;;;;;;;6.36;82.33;97817.94;6243773;22;20079;-87
2023/11/12 11:41:34;;;;;;;15.60;8.38;;;;;;;6.66;82.15;97862.28;6189841;23;20065;-89
2023/11/12 11:44:50;;;;;;;11.52;8.05;;;;;;;6.61;82.14;97851.56;6151294;23;20025;-88
2023/11/12 11:47:27;;;;;;;12.57;8.10;;;;;;;6.68;82.28;97862.72;6239736;22;20007;-86
2023/11/12 11:50:04;;;;;;;10.35;7.78;;;;;;;6.73;82.49;97856.34;6269271;22;20045;-88
2023/11/12 11:52:53;;;;;;;13.43;8.00;;;;;;;6.39;82.16;97797.47;6268520;22;20012;-88
2023/11/12 11:55:32;;;;;;;14.20;8.77;;;;;;;6.24;82.17;97775.16;6217625;22;20065;-86
2023/11/12 11:58:07;;;;;;;11.45;7.97;;;;;;;6.76;82.27;97837.47;6271972;22;20003;-84
2023/11/12 12:00:36;;;;;;;11.43;8.23;;;;;;;6.55;82.48;97807.50;6233580;22;20027;-86
2023/11/12 12:03:26;;;;;;;11.95;7.78;;;;;;;6.62;82.43;97815.13;6215172;22;20025;-85
2023/11/12 12:05:57;;;;;;;12.70;8.35;;;;;;;6.82;82.34;97825.31;6260108;22;20048;-85
2023/11/12 12:08:24;;;;;;;11.82;8.40;;;;;;;6.49;82.38;97770.81;6283578;22;20016;-84
2023/11/12 12:11:13;;;;;;;11.00;7.75;;;;;;;6.77;82.39;97794.81;6291665;22;20006;-86
2023/11/12 12:14:09;;;;;;;13.38;8.13;;;;;;;6.79;82.37;97796.09;6264516;22;20023;-87
2023/11/12 12:16:35;;;;;;;10.45;8.05;;;;;;;6.38;82.78;97731.56;6237199;22;20027;-86
2023/11/12 12:19:30;;;;;;;10.02;7.70;;;;;;;6.46;82.85;97727.25;6263256;22;20469;-85
2023/11/12 12:22:05;;;;;;;10.95;8.38;;;;;;;6.55;83.14;97752.41;6288897;22;20035;-86
2023/11/12 12:24:49;;;;;;;10.75;7.35;;;;;;;6.52;83.37;97742.19;6247872;22;20023;-88
2023/11/12 12:27:18;;;;;;;15.63;8.55;;;;;;;6.67;83.00;97749.03;6287292;22;20016;-84
2023/11/12 12:29:50;;;;;;;9.18;7.35;;;;;;;6.62;82.73;97733.69;6259431;22;20020;-86
2023/11/12 12:32:19;;;;;;;19.58;7.75;;;;;;;6.93;82.87;97768.72;6258166;22;20019;-87
2023/11/12 12:34:56;;;;;;;8.85;7.20;;;;;;;6.67;82.66;97709.09;6288649;22;20003;-87
2023/11/12 12:37:32;;;;;;;15.60;7.82;;;;;;;6.51;82.87;97689.03;6229335;23;20020;-86
2023/11/12 12:40:10;;;;;;;9.90;7.22;;;;;;;6.99;82.80;97772.06;6164414;23;20545;-86
2023/11/12 12:42:43;;;;;;;8.80;7.05;;;;;;;7.00;82.91;97769.00;6170481;23;20024;-87
2023/11/12 12:45:16;;;;;;;11.88;7.82;;;;;;;6.95;82.95;97746.66;6194854;23;20259;-87
2023/11/12 12:48:22;;;;;;;10.80;7.38;;;;;;;7.05;83.04;97749.00;6148669;23;20195;-85
2023/11/12 12:50:59;;;;;;;10.85;7.70;;;;;;;6.99;83.06;97723.16;6190338;23;20021;-85
2023/11/12 12:53:27;;;;;;;11.75;8.48;;;;;;;7.10;82.91;97746.09;6198884;23;20410;-86
2023/11/12 12:55:55;;;;;;;15.40;8.02;;;;;;;7.05;83.15;97736.22;6147440;23;20021;-85
2023/11/12 12:58:36;;;;;;;11.90;8.48;;;;;;;6.78;83.33;97676.94;6170248;23;19993;-85
2023/11/12 13:01:05;;;;;;;11.05;7.75;;;;;;;7.11;83.05;97728.66;6171526;23;20075;-84
2023/11/12 13:03:37;;;;;;;12.85;8.32;;;;;;;7.13;83.11;97729.16;6148088;23;20027;-86
2023/11/12 13:06:08;;;;;;;11.23;8.57;;;;;;;7.00;83.16;97695.66;6155673;23;20025;-89
2023/11/12 13:11:57;;;;;;;10.73;7.57;;;;;;;7.26;83.39;97732.75;6325412;22;20019;-87
2023/11/12 13:14:55;;;;;;;11.52;8.15;;;;;;;6.92;83.62;97657.66;6202804;23;20024;-89
2023/11/12 13:21:14;;;;;;;11.35;8.48;;;;;;;7.04;83.41;97661.25;6267830;23;20096;-86
2023/11/12 13:24:26;;;;;;;13.73;7.60;;;;;;;7.12;83.51;97665.06;6253736;23;20078;-88
2023/11/12 13:29:47;;;;;;;13.20;9.02;;;;;;;6.97;83.45;97633.03;6323496;22;20078;-87
2023/11/12 13:32:29;;;;;;;17.23;9.25;;;;;;;7.48;83.71;97688.13;6282544;22;20036;-86
2023/11/12 13:37:50;;;;;;;14.20;9.07;;;;;;;7.19;83.76;97634.66;6113665;23;20045;-87
2023/11/12 13:40:24;;;;;;;11.10;8.45;;;;;;;7.26;83.89;97630.25;6073124;23;20029;-85
2023/11/12 13:42:50;;;;;;;13.00;9.07;;;;;;;7.47;83.97;97654.69;6113686;23;20034;-87
2023/11/12 13:45:22;;;;;;;13.57;9.07;;;;;;;7.26;83.67;97624.81;6088644;23;20022;-87
2023/11/12 13:48:18;;;;;;;13.02;9.95;;;;;;;7.41;84.21;97628.84;6088871;23;20028;-89
2023/11/12 13:50:47;;;;;;;14.50;10.88;;;;;;;7.27;83.83;97598.44;6094810;23;20096;-90
2023/11/12 14:02:14;;;;;;;18.20;12.52;;;;;;;7.62;83.91;97609.81;6302171;22;20031;-88
2023/11/12 14:04:44;;;;;;;14.77;10.73;;;;;;;7.54;84.32;97597.06;6249982;22;20015;-87
2023/11/12 14:07:10;;;;;;;14.55;10.90;;;;;;;7.60;84.28;97594.94;6274193;22;20016;-88
2023/11/12 14:09:57;;;;;;;12.68;9.05;;;;;;;7.33;84.59;97556.34;6273207;22;20026;-88
2023/11/12 14:12:50;;;;;;;11.65;9.15;;;;;;;7.47;84.88;97575.88;6303131;22;20038;-86
2023/11/12 14:24:43;;;;;;;10.43;7.85;;;;;;;7.77;84.78;97571.06;6272365;22;20027;-86
2023/11/12 14:27:57;;;;;;;12.60;8.90;;;;;;;8.04;84.83;97595.25;6269536;22;20027;-86
2023/11/12 14:34:49;;;;;;;11.85;7.57;;;;;;;7.98;84.93;97581.88;6233167;23;20073;-84
2023/11/12 14:37:54;;;;;;;10.95;7.38;;;;;;;7.94;84.83;97572.78;6218277;23;20024;-87
2023/11/12 14:40:44;;;;;;;10.60;7.88;;;;;;;7.61;84.96;97501.34;6182761;23;20026;-85
2023/11/12 14:43:13;;;;;;;11.05;7.82;;;;;;;7.48;85.09;97486.94;6224465;23;20120;-85
2023/11/12 14:49:31;;;;;;;10.65;8.25;;;;;;;8.16;85.25;97578.94;6203547;23;20017;-86
2023/11/12 14:52:05;;;;;;;11.35;7.75;;;;;;;7.80;85.42;97514.41;6178631;23;20426;-86
2023/11/12 14:54:48;;;;;;;11.70;8.38;;;;;;;7.96;84.99;97523.50;6170109;23;20025;-86
2023/11/12 14:57:42;;;;;;;12.50;8.77;;;;;;;7.79;84.96;97501.97;6201152;23;20023;-88
2023/11/12 15:03:39;;;;;;;16.58;8.52;;;;;;;8.37;85.08;97560.56;6186428;23;20025;-87
2023/11/12 15:06:39;;;;;;;11.85;8.80;;;;;;;8.40;84.94;97554.47;6204274;23;19997;-88
2023/11/12 15:16:05;;;;;;;10.35;8.55;;;;;;;8.46;85.12;97534.03;6301123;22;20016;-88
2023/11/12 15:19:10;;;;;;;13.57;9.07;;;;;;;8.36;85.18;97506.47;6214298;23;20078;-88
2023/11/12 15:28:19;;;;;;;12.75;9.75;;;;;;;8.02;85.37;97420.69;6288185;22;20075;-88
2023/11/12 15:31:14;;;;;;;14.38;10.00;;;;;;;8.58;85.53;97503.28;6216011;22;20016;-87
2023/11/12 15:33:53;;;;;;;15.18;10.07;;;;;;;8.25;85.74;97443.56;6269059;22;19995;-85
2023/11/12 15:36:21;;;;;;;14.95;10.20;;;;;;;8.22;85.79;97445.03;6270435;22;20011;-87
2023/11/12 15:41:38;;;;;;;13.02;8.93;;;;;;;8.64;86.24;97487.47;6284480;22;19919;-87
2023/11/12 15:44:07;;;;;;;13.73;9.77;;;;;;;8.37;86.04;97446.22;6217515;22;20108;-87
2023/11/12 15:49:28;;;;;;;15.25;10.20;;;;;;;8.37;86.12;97440.78;6236062;23;20024;-87
2023/11/12 15:59:02;;;;;;;12.80;10.25;;;;;;;8.60;86.02;97456.63;6323779;22;20018;-87
2023/11/12 16:12:21;;;;;;;15.82;10.25;;;;;;;8.78;86.55;97421.75;6296691;22;20050;-90
2023/11/12 16:27:11;;;;;;;22.73;12.77;;;;;;;8.96;87.00;97424.94;6141563;23;20052;-91
2023/11/12 16:33:36;;;;;;;20.92;13.23;;;;;;;8.64;86.95;97365.75;6287255;22;20023;-89
2023/11/12 16:36:04;;;;;;;18.00;11.98;;;;;;;9.03;86.73;97406.06;6240370;22;20015;-89
2023/11/12 16:38:52;;;;;;;25.10;14.27;;;;;;;8.91;87.04;97394.09;6294683;22;20011;-89
2023/11/12 17:33:39;;;;;;;41.05;19.90;;;;;;;9.05;86.81;97246.50;6324345;22;20034;-90
2023/11/12 17:36:36;;;;;;;41.28;21.90;;;;;;;9.55;86.90;97298.66;6274784;22;20103;-92
2023/11/12 17:57:55;;;;;;;21.77;13.57;;;;;;;9.49;87.45;97261.91;6233355;23;20076;-88
2023/11/12 18:07:04;;;;;;;21.92;14.13;;;;;;;9.09;86.95;97187.41;6322783;22;20031;-88
2023/11/12 18:09:32;;;;;;;26.73;15.23;;;;;;;9.51;86.83;97238.59;6261788;22;20015;-88
2023/11/12 18:11:59;;;;;;;;;;;;;;;9.69;87.03;97260.00;6302084;22;20022;-91
2023/11/12 18:14:29;;;;;;;22.03;14.30;;;;;;;9.48;87.01;97206.56;6306882;22;19902;-91
2023/11/12 18:17:02;;;;;;;23.08;14.75;;;;;;;9.12;87.03;97153.22;6303395;22;20075;-93
2023/11/12 18:19:32;;;;;;;23.95;14.43;;;;;;;9.41;86.95;97198.25;6276380;22;20007;-92
2023/11/12 18:22:25;;;;;;;24.02;15.20;;;;;;;9.61;86.70;97208.03;6303429;22;20571;-89
2023/11/12 18:25:46;;;;;;;24.15;15.82;;;;;;;9.32;86.47;97151.31;6298220;22;20027;-86
2023/11/12 18:31:19;;;;;;;25.98;15.35;;;;;;;9.48;86.33;97173.84;6296512;22;20028;-90
2023/11/12 18:33:50;;;;;;;24.42;14.50;;;;;;;9.68;86.24;97187.50;6247998;22;20044;-88
2023/11/12 18:36:41;;;;;;;20.63;14.75;;;;;;;9.63;86.18;97186.66;6250447;22;20083;-92
2023/11/12 18:39:30;;;;;;;20.92;15.75;;;;;;;9.59;86.22;97169.41;6246896;22;20015;-90
2023/11/12 18:41:59;;;;;;;23.25;15.25;;;;;;;9.72;85.95;97180.16;6268443;22;20061;-91
2023/11/12 18:44:29;;;;;;;22.73;15.40;;;;;;;9.95;85.70;97193.88;6243645;22;20024;-89
2023/11/12 18:46:57;;;;;;;28.55;15.52;;;;;;;9.50;85.21;97138.81;6245420;22;20028;-90
2023/11/12 18:49:25;;;;;;;23.17;15.10;;;;;;;9.76;85.28;97165.44;6246219;22;20046;-90
2023/11/12 18:51:55;;;;;;;26.85;15.43;;;;;;;9.88;85.09;97181.66;6239461;22;20026;-91
2023/11/12 18:54:21;;;;;;;21.95;14.40;;;;;;;9.70;84.66;97147.81;6270634;22;20286;-90
2023/11/12 18:56:59;;;;;;;18.60;13.40;;;;;;;9.84;84.39;97155.47;6269307;22;20024;-89
2023/11/12 19:02:52;;;;;;;19.27;13.85;;;;;;;9.82;84.32;97147.63;6221199;22;21127;-90
2023/11/12 19:05:46;;;;;;;23.23;13.25;;;;;;;9.44;84.05;97093.91;6289082;22;20019;-92
2023/11/12 19:08:18;;;;;;;17.13;12.60;;;;;;;9.77;84.00;97137.03;6307241;22;20007;-92
2023/11/12 19:10:48;;;;;;;18.48;11.95;;;;;;;9.75;83.94;97122.16;6328761;22;20011;-87
2023/11/12 19:13:19;;;;;;;17.88;12.18;;;;;;;9.68;83.59;97101.00;6275247;22;20019;-92
2023/11/12 19:15:54;;;;;;;18.40;11.75;;;;;;;9.97;83.37;97156.09;6274911;22;20041;-86
2023/11/12 19:18:25;;;;;;;20.48;11.63;;;;;;;9.79;82.93;97114.84;6330917;22;19999;-89
2023/11/12 19:20:53;;;;;;;18.33;10.68;;;;;;;9.96;83.03;97133.47;6300178;22;20004;-88
2023/11/12 19:23:19;;;;;;;15.10;9.98;;;;;;;9.97;82.68;97131.56;6271812;22;20019;-91
2023/11/12 19:25:46;;;;;;;14.00;9.15;;;;;;;9.89;82.38;97128.66;6273575;22;20080;-91
2023/11/12 19:28:12;;;;;;;15.35;8.82;;;;;;;9.81;81.74;97104.34;6244462;22;20019;-87
2023/11/12 19:30:46;;;;;;;16.00;9.02;;;;;;;9.45;81.81;97054.59;6247395;22;20068;-89
2023/11/12 19:36:20;;;;;;;9.45;6.82;;;;;;;9.78;81.43;97099.63;6117496;23;20691;-88
2023/11/12 19:39:49;;;;;;;12.90;7.30;;;;;;;10.10;81.17;97127.50;6144139;23;20026;-91
2023/11/12 19:57:59;;;;;;;6.32;3.15;;;;;;;9.73;80.73;97108.09;6297280;22;20101;-89
2023/11/12 20:01:14;;;;;;;6.25;2.90;;;;;;;9.72;80.55;97093.66;6277270;22;20023;-92
2023/11/12 20:04:06;;;;;;;4.75;2.65;;;;;;;9.61;80.19;97070.88;6305184;22;20030;-90
2023/11/12 20:06:34;;;;;;;8.88;2.95;;;;;;;9.47;79.75;97041.41;6297214;22;20015;-92
2023/11/12 20:12:06;;;;;;;7.45;3.17;;;;;;;9.61;79.98;97049.81;6321721;22;20046;-91
2023/11/12 20:15:08;;;;;;;8.65;2.80;;;;;;;9.44;79.24;97009.41;6243527;22;20028;-88
2023/11/12 20:18:09;;;;;;;8.68;2.97;;;;;;;9.95;78.97;97073.81;6268728;22;20020;-89
2023/11/12 20:20:38;;;;;;;4.18;2.63;;;;;;;9.82;79.13;97065.78;6247061;22;20071;-91
2023/11/12 20:23:07;;;;;;;7.35;2.70;;;;;;;9.65;78.68;97044.44;6287889;22;20019;-91
2023/11/12 20:26:27;;;;;;;3.88;2.58;;;;;;;9.84;78.99;97076.34;6329553;22;19999;-90
2023/11/12 20:32:44;;;;;;;4.15;2.40;;;;;;;9.62;80.55;97024.13;6305745;22;20003;-92
2023/11/12 20:36:18;;;;;;;5.60;2.92;;;;;;;9.83;80.48;97058.38;6330518;22;20007;-90
2023/11/12 20:38:59;;;;;;;7.70;2.72;;;;;;;9.48;81.26;97018.41;6308114;22;20031;-90
2023/11/12 20:42:42;;;;;;;6.15;3.20;;;;;;;9.75;81.45;97043.84;6303553;22;20408;-91
2023/11/12 20:52:03;;;;;;;6.95;2.97;;;;;;;9.73;81.21;97015.34;6144392;23;20538;-90
2023/11/12 20:58:41;;;;;;;6.00;3.13;;;;;;;9.75;81.96;97038.38;6292072;22;20095;-91
2023/11/12 21:01:34;;;;;;;7.47;3.53;;;;;;;9.70;81.86;97027.78;6292519;22;20015;-91
2023/11/12 21:04:37;;;;;;;7.25;3.35;;;;;;;9.14;82.38;96944.59;6326963;22;20034;-92
2023/11/12 21:07:23;;;;;;;5.35;3.22;;;;;;;9.68;81.94;97012.94;6270941;22;20054;-91
2023/11/12 21:10:21;;;;;;;7.05;3.30;;;;;;;9.17;81.64;96938.44;6211054;22;20095;-89
2023/11/12 21:12:48;;;;;;;4.07;2.63;;;;;;;9.26;81.76;96962.69;6264801;22;20021;-87
2023/11/12 21:23:51;;;;;;;3.47;2.67;;;;;;;9.73;81.39;96983.38;6289696;22;20091;-91
2023/11/12 21:26:18;;;;;;;4.35;3.20;;;;;;;9.73;81.67;96971.69;6296988;22;20022;-91
2023/11/12 21:31:34;;;;;;;5.97;3.80;;;;;;;9.45;81.58;96923.72;6286850;22;20027;-89
2023/11/12 21:35:04;;;;;;;4.80;3.75;;;;;;;9.73;81.78;96958.84;6254554;22;20464;-92
2023/11/12 21:37:31;;;;;;;5.15;4.05;;;;;;;9.57;82.13;96928.16;6292555;22;20108;-88
2023/11/12 21:55:16;;;;;;;7.07;3.15;;;;;;;9.83;81.02;96932.88;6204982;23;20016;-90
2023/11/12 22:00:57;;;;;;;6.00;2.45;;;;;;;9.66;80.84;96912.34;6176234;23;20025;-87
2023/11/12 22:06:09;;;;;;;4.60;2.28;;;;;;;9.27;81.53;96874.34;6226744;23;20089;-92
2023/11/12 22:08:35;;;;;;;5.97;2.70;;;;;;;9.46;81.75;96883.59;6202228;23;20016;-88
2023/11/12 22:11:01;;;;;;;7.67;2.77;;;;;;;9.30;81.87;96867.34;6225280;23;20023;-89
2023/11/12 22:13:54;;;;;;;3.60;2.40;;;;;;;9.63;82.15;96927.53;6176982;23;20012;-92